Salt Lake City, Utah
Current Conditions -  °F | °C
As of 12:53 PM on Tuesday 25 Nov 2014 (Local Time) from KSLC Reporting Station
Broken Clouds Broken Clouds  
Wind Chill: 35°   Ceiling: 5500
Heat Index: 43°   Visibility: 10mi
Dew Point: 20°   Wind: 16mph
Humidity: 40%   Direction: 150°SSE
Pressure: 30.32"   Gusts: NA
Location:  40.76°N, 111.88°W
Report Text: KSLC 251953Z 15014KT 10SM BKN055 BKN075 06/M07 A3032 RMK AO2 SLP274 VIRGA NW-NE SH DSNT NE-SE T00611067
Loading
Personal Weather Stations






























Interactive Weather Map New forecast layout! Learn more

10-Day Weather Forecast

Advertisements
Track Severe Weather on mobile